createdAt,value
2023-06-20T00:00:11.111Z,11.80
2023-06-20T00:02:39.629Z,13.43
2023-06-20T00:05:07.932Z,13.32
2023-06-20T00:07:36.162Z,13.23
2023-06-20T00:10:04.185Z,13.25
2023-06-20T00:12:32.650Z,13.23
2023-06-20T00:15:00.535Z,12.30
2023-06-20T00:17:29.041Z,12.45
2023-06-20T00:19:57.035Z,13.05
2023-06-20T00:22:25.003Z,13.27
2023-06-20T00:24:53.080Z,12.63
2023-06-20T00:27:21.069Z,13.98
2023-06-20T00:29:49.131Z,14.07
2023-06-20T00:32:17.014Z,15.13
2023-06-20T00:34:45.872Z,13.88
2023-06-20T00:37:13.762Z,13.25
2023-06-20T00:39:41.804Z,14.13
2023-06-20T00:42:19.740Z,14.35
2023-06-20T00:48:29.649Z,14.82
2023-06-20T00:50:58.512Z,14.75
2023-06-20T00:53:26.755Z,16.00
2023-06-20T00:55:54.737Z,15.80
2023-06-20T00:58:22.631Z,15.68
2023-06-20T01:00:54.073Z,15.55
2023-06-20T01:03:23.328Z,15.57
2023-06-20T01:06:21.556Z,14.38
2023-06-20T01:08:56.590Z,14.15
2023-06-20T01:11:42.331Z,15.30
2023-06-20T01:14:13.184Z,14.63
2023-06-20T01:16:44.045Z,15.15
2023-06-20T01:19:30.738Z,14.23
2023-06-20T01:22:02.268Z,13.57
2023-06-20T01:24:35.653Z,13.73
2023-06-20T01:27:12.425Z,14.37
2023-06-20T01:29:42.684Z,15.45
2023-06-20T01:32:12.974Z,13.73
2023-06-20T01:34:49.168Z,13.15
2023-06-20T01:37:19.224Z,13.27
2023-06-20T01:39:55.142Z,14.43
2023-06-20T01:42:25.174Z,13.98
2023-06-20T01:44:54.457Z,14.35
2023-06-20T01:47:23.981Z,14.13
2023-06-20T01:49:52.827Z,14.68
2023-06-20T01:52:21.968Z,14.50
2023-06-20T01:54:51.099Z,14.05
2023-06-20T01:57:19.893Z,14.82
2023-06-20T01:59:49.287Z,15.73
2023-06-20T02:02:17.887Z,16.55
2023-06-20T02:04:46.847Z,16.77
2023-06-20T02:07:15.942Z,15.95
2023-06-20T02:09:46.557Z,17.48
2023-06-20T02:12:15.065Z,18.45
2023-06-20T02:14:43.245Z,15.57
2023-06-20T02:17:14.312Z,17.77
2023-06-20T02:19:42.364Z,16.67
2023-06-20T02:22:13.376Z,16.77
2023-06-20T02:24:42.250Z,16.75
2023-06-20T02:27:13.730Z,17.58
2023-06-20T02:29:43.193Z,19.20
2023-06-20T02:32:14.912Z,19.52
2023-06-20T02:34:44.690Z,18.60
2023-06-20T02:37:13.559Z,21.08
2023-06-20T02:39:41.520Z,20.13
2023-06-20T02:42:11.629Z,19.00
2023-06-20T02:44:39.509Z,19.83
2023-06-20T02:47:16.976Z,19.27
2023-06-20T02:49:45.193Z,21.15
2023-06-20T02:52:31.502Z,20.70
2023-06-20T02:54:59.420Z,20.52
2023-06-20T02:57:29.047Z,21.77
2023-06-20T03:00:00.734Z,21.23
2023-06-20T03:02:31.941Z,22.00
2023-06-20T03:05:02.583Z,20.48
2023-06-20T03:07:35.388Z,20.27
2023-06-20T03:10:07.724Z,20.42
2023-06-20T03:12:35.677Z,21.27
2023-06-20T03:15:04.159Z,23.40
2023-06-20T03:17:36.628Z,23.13
2023-06-20T03:20:08.306Z,24.10
2023-06-20T03:22:36.521Z,25.73
2023-06-20T03:25:05.040Z,23.55
2023-06-20T03:27:33.085Z,21.63
2023-06-20T03:30:01.681Z,21.30
2023-06-20T03:32:32.596Z,21.90
2023-06-20T03:35:00.848Z,23.25
2023-06-20T03:37:28.847Z,22.35
2023-06-20T03:39:56.714Z,22.52
2023-06-20T03:42:25.395Z,23.25
2023-06-20T03:44:53.276Z,24.10
2023-06-20T03:47:21.724Z,23.05
2023-06-20T03:49:49.661Z,24.92
2023-06-20T03:52:17.793Z,24.40
2023-06-20T03:54:45.614Z,23.85
2023-06-20T03:57:13.869Z,23.50
2023-06-20T03:59:42.895Z,24.02
2023-06-20T04:02:10.911Z,24.88
2023-06-20T04:04:40.598Z,24.70
2023-06-20T04:07:11.470Z,26.23
2023-06-20T04:09:39.438Z,26.25
2023-06-20T04:12:07.674Z,25.52
2023-06-20T04:14:35.543Z,25.60
2023-06-20T04:17:04.404Z,27.33
2023-06-20T04:19:34.211Z,27.15
2023-06-20T04:22:02.328Z,26.98
2023-06-20T04:24:30.616Z,27.25
2023-06-20T04:26:58.737Z,27.80
2023-06-20T04:29:30.701Z,27.48
2023-06-20T04:31:59.402Z,26.02
2023-06-20T04:34:27.586Z,27.73
2023-06-20T04:36:55.467Z,28.35
2023-06-20T04:39:24.344Z,27.80
2023-06-20T04:41:52.344Z,28.20
2023-06-20T04:44:21.114Z,28.63
2023-06-20T04:46:49.238Z,28.55
2023-06-20T04:49:17.422Z,32.05
2023-06-20T04:51:45.445Z,33.10
2023-06-20T04:54:13.371Z,28.75
2023-06-20T04:56:44.014Z,30.25
2023-06-20T04:59:12.330Z,29.88
2023-06-20T05:01:40.241Z,31.65
2023-06-20T05:04:08.195Z,31.80
2023-06-20T05:06:37.845Z,58.50
2023-06-20T05:09:05.708Z,37.55
2023-06-20T05:11:33.657Z,30.63
2023-06-20T05:14:02.744Z,30.42
2023-06-20T05:16:30.629Z,29.67
2023-06-20T05:18:58.566Z,32.05
2023-06-20T05:21:26.529Z,31.27
2023-06-20T05:23:54.625Z,31.90
2023-06-20T05:26:23.044Z,29.15
2023-06-20T05:28:50.948Z,32.80
2023-06-20T05:31:19.117Z,31.10
2023-06-20T05:33:47.097Z,31.73
2023-06-20T05:36:15.231Z,33.22
2023-06-20T05:38:55.490Z,34.00
2023-06-20T05:41:27.502Z,33.35
2023-06-20T05:43:55.477Z,32.80
2023-06-20T05:46:23.507Z,33.40
2023-06-20T05:48:51.384Z,30.98
2023-06-20T05:51:19.542Z,31.42
2023-06-20T05:53:47.500Z,32.30
2023-06-20T05:56:15.374Z,31.50
2023-06-20T05:58:43.372Z,29.60
2023-06-20T06:01:11.291Z,29.23
2023-06-20T06:03:39.382Z,31.05
2023-06-20T06:06:11.069Z,31.98
2023-06-20T06:08:39.383Z,31.73
2023-06-20T06:11:08.640Z,31.98
2023-06-20T06:13:36.697Z,29.05
2023-06-20T06:16:04.663Z,29.60
2023-06-20T06:18:32.550Z,29.88
2023-06-20T06:21:00.475Z,30.05
2023-06-20T06:23:28.625Z,29.45
2023-06-20T06:25:56.538Z,29.60
2023-06-20T06:28:25.233Z,29.58
2023-06-20T06:30:53.232Z,28.35
2023-06-20T06:33:21.506Z,28.80
2023-06-20T06:35:49.964Z,29.85
2023-06-20T06:38:17.896Z,29.95
2023-06-20T06:40:46.819Z,29.00
2023-06-20T06:43:14.676Z,29.67
2023-06-20T06:45:42.721Z,28.42
2023-06-20T06:48:10.665Z,29.27
2023-06-20T06:50:38.613Z,29.10
2023-06-20T06:53:06.571Z,29.80
2023-06-20T06:55:34.585Z,29.17
2023-06-20T06:58:02.440Z,27.75
2023-06-20T07:00:31.060Z,27.63
2023-06-20T07:02:58.974Z,31.65
2023-06-20T07:05:28.422Z,28.98
2023-06-20T07:07:56.838Z,27.50
2023-06-20T07:10:24.780Z,24.92
2023-06-20T07:12:54.670Z,26.80
2023-06-20T07:15:23.101Z,25.33
2023-06-20T07:17:51.101Z,28.02
2023-06-20T07:20:20.277Z,26.17
2023-06-20T07:22:48.092Z,25.95
2023-06-20T07:25:17.495Z,24.73
2023-06-20T07:27:45.366Z,25.00
2023-06-20T07:30:13.458Z,25.13
2023-06-20T07:32:41.376Z,25.30
2023-06-20T07:35:09.705Z,24.00
2023-06-20T07:37:37.672Z,27.95
2023-06-20T07:40:08.372Z,27.85
2023-06-20T07:42:36.235Z,27.15
2023-06-20T07:45:04.344Z,26.13
2023-06-20T07:47:32.331Z,25.45
2023-06-20T07:50:00.352Z,24.92
2023-06-20T07:52:28.394Z,26.48
2023-06-20T07:54:57.295Z,24.52
2023-06-20T07:57:25.408Z,26.45
2023-06-20T07:59:53.331Z,26.52
2023-06-20T08:02:21.830Z,26.25
2023-06-20T08:04:50.104Z,27.80
2023-06-20T08:07:18.219Z,22.75
2023-06-20T08:09:46.116Z,23.17
2023-06-20T08:12:14.042Z,23.90
2023-06-20T08:14:41.948Z,22.75
2023-06-20T08:17:09.954Z,23.38
2023-06-20T08:19:38.040Z,24.48
2023-06-20T08:22:05.902Z,23.77
2023-06-20T08:24:33.917Z,23.27
2023-06-20T08:27:04.874Z,20.98
2023-06-20T08:29:32.816Z,23.50
2023-06-20T08:32:00.830Z,21.92
2023-06-20T08:34:28.912Z,20.40
2023-06-20T08:36:57.254Z,21.35
2023-06-20T08:39:25.427Z,19.67
2023-06-20T08:41:53.542Z,19.52
2023-06-20T08:44:22.009Z,20.85
2023-06-20T08:46:58.186Z,18.35
2023-06-20T08:49:26.479Z,22.75
2023-06-20T08:51:56.032Z,22.27
2023-06-20T08:54:24.860Z,22.67
2023-06-20T08:56:52.765Z,25.77
2023-06-20T08:59:23.934Z,26.75
2023-06-20T09:01:52.155Z,20.63
2023-06-20T09:04:20.323Z,21.33
2023-06-20T09:06:51.495Z,17.67
2023-06-20T09:09:19.769Z,19.27
2023-06-20T09:11:53.586Z,21.35
2023-06-20T09:14:28.588Z,16.92
2023-06-20T09:16:57.781Z,19.23
2023-06-20T09:19:25.766Z,16.70
2023-06-20T09:22:04.312Z,16.88
2023-06-20T09:24:47.270Z,17.90
2023-06-20T09:27:15.368Z,17.25
2023-06-20T09:29:53.179Z,17.02
2023-06-20T09:32:21.691Z,18.00
2023-06-20T09:34:50.054Z,18.73
2023-06-20T09:37:21.136Z,17.00
2023-06-20T09:39:48.984Z,17.35
2023-06-20T09:42:17.034Z,16.23
2023-06-20T09:44:45.207Z,18.27
2023-06-20T09:47:13.650Z,16.38
2023-06-20T09:49:42.166Z,17.50
2023-06-20T09:52:16.414Z,19.00
2023-06-20T09:54:45.441Z,18.58
2023-06-20T09:57:15.521Z,16.38
2023-06-20T09:59:44.009Z,17.83
2023-06-20T10:02:12.364Z,15.30
2023-06-20T10:04:44.176Z,17.25
2023-06-20T10:07:15.758Z,16.98
2023-06-20T10:09:43.913Z,18.65
2023-06-20T10:12:13.315Z,15.60
2023-06-20T10:14:42.078Z,15.82
2023-06-20T10:17:10.476Z,17.83
2023-06-20T10:19:51.911Z,17.67
2023-06-20T10:22:35.118Z,14.50
2023-06-20T10:25:12.841Z,14.35
2023-06-20T10:27:44.917Z,24.13
2023-06-20T10:30:16.732Z,19.58
2023-06-20T10:33:16.752Z,17.27
2023-06-20T10:36:09.900Z,16.38
2023-06-20T10:38:38.911Z,16.60
2023-06-20T10:41:14.236Z,16.05
2023-06-20T10:43:55.740Z,16.42
2023-06-20T10:46:44.149Z,16.65
2023-06-20T10:49:12.692Z,13.70
2023-06-20T10:52:25.639Z,15.43
2023-06-20T10:54:53.536Z,11.15
2023-06-20T10:57:23.718Z,11.90
2023-06-20T10:59:52.048Z,14.43
2023-06-20T11:02:20.128Z,14.43
2023-06-20T11:04:51.151Z,14.90
2023-06-20T11:07:19.143Z,10.60
2023-06-20T11:09:47.404Z,12.98
2023-06-20T11:12:15.359Z,12.50
2023-06-20T11:14:43.228Z,10.30
2023-06-20T11:17:11.287Z,10.93
2023-06-20T11:19:40.823Z,10.15
2023-06-20T11:22:08.882Z,11.30
2023-06-20T11:24:37.899Z,13.07
2023-06-20T11:27:13.060Z,12.55
2023-06-20T11:29:41.200Z,12.30
2023-06-20T11:32:10.853Z,10.50
2023-06-20T11:34:55.540Z,10.65
2023-06-20T11:37:23.933Z,9.93
2023-06-20T11:39:51.896Z,10.05
2023-06-20T11:42:20.050Z,11.55
2023-06-20T11:44:47.990Z,9.85
2023-06-20T11:47:15.985Z,9.70
2023-06-20T11:49:43.897Z,24.17
2023-06-20T11:52:12.008Z,14.55
2023-06-20T11:54:53.188Z,11.93
2023-06-20T11:57:26.987Z,8.80
2023-06-20T11:59:56.126Z,9.45
2023-06-20T12:02:27.002Z,9.40
2023-06-20T12:04:58.419Z,9.57
2023-06-20T12:07:28.047Z,9.27
2023-06-20T12:09:56.162Z,8.35
2023-06-20T12:12:33.856Z,9.77
2023-06-20T12:15:02.079Z,9.02
2023-06-20T12:17:30.240Z,9.45
2023-06-20T12:19:59.011Z,9.80
2023-06-20T12:22:30.232Z,9.10
2023-06-20T12:24:58.302Z,9.65
2023-06-20T12:27:26.369Z,8.57
2023-06-20T12:29:54.356Z,8.50
2023-06-20T12:32:22.337Z,8.00
2023-06-20T12:34:50.969Z,7.82
2023-06-20T12:37:18.964Z,8.43
2023-06-20T12:39:46.865Z,8.48
2023-06-20T12:42:17.369Z,8.75
2023-06-20T12:44:45.322Z,8.85
2023-06-20T12:47:13.580Z,9.25
2023-06-20T12:49:43.896Z,9.20
2023-06-20T12:52:11.846Z,9.38
2023-06-20T12:54:42.536Z,10.48
2023-06-20T12:57:10.935Z,9.75
2023-06-20T12:59:38.810Z,9.57
2023-06-20T13:02:06.871Z,9.45
2023-06-20T13:04:35.287Z,9.70
2023-06-20T13:07:03.188Z,10.13
2023-06-20T13:09:31.102Z,7.90
2023-06-20T13:11:58.911Z,8.43
2023-06-20T13:14:26.837Z,7.63
2023-06-20T13:16:54.753Z,7.68
2023-06-20T13:19:22.678Z,8.48
2023-06-20T13:21:50.804Z,8.15
2023-06-20T13:24:18.826Z,8.02
2023-06-20T13:26:46.842Z,9.95
2023-06-20T13:29:14.822Z,8.25
2023-06-20T13:31:42.722Z,9.88
2023-06-20T13:34:10.858Z,9.68
2023-06-20T13:36:38.747Z,9.45
2023-06-20T13:39:06.753Z,9.30
2023-06-20T13:41:34.622Z,8.23
2023-06-20T13:44:02.627Z,8.77
2023-06-20T13:46:30.670Z,10.40
2023-06-20T13:48:58.900Z,10.52
2023-06-20T13:51:27.791Z,10.60
2023-06-20T13:53:56.985Z,9.98
2023-06-20T13:56:25.132Z,11.10
2023-06-20T13:58:53.101Z,10.27
2023-06-20T14:01:21.072Z,10.35
2023-06-20T14:03:49.085Z,9.98
2023-06-20T14:06:17.078Z,9.77
2023-06-20T14:08:45.189Z,11.63
2023-06-20T14:11:13.344Z,10.77
2023-06-20T14:13:41.408Z,10.55
2023-06-20T14:16:10.225Z,11.38
2023-06-20T14:18:38.232Z,10.73
2023-06-20T14:21:06.180Z,9.48
2023-06-20T14:23:34.135Z,10.27
2023-06-20T14:26:02.122Z,9.85
2023-06-20T14:28:30.992Z,9.63
2023-06-20T14:30:58.942Z,9.55
2023-06-20T14:33:27.019Z,10.25
2023-06-20T14:35:55.056Z,11.13
2023-06-20T14:38:23.028Z,9.82
2023-06-20T14:40:50.913Z,10.07
2023-06-20T14:43:19.064Z,9.32
2023-06-20T14:45:47.020Z,10.95
2023-06-20T14:48:15.035Z,9.82
2023-06-20T14:53:13.937Z,9.05
2023-06-20T14:55:41.790Z,8.93
2023-06-20T14:58:10.742Z,9.20
2023-06-20T15:00:40.549Z,10.35
2023-06-20T15:03:09.103Z,10.23
2023-06-20T15:05:37.076Z,9.48
2023-06-20T15:08:05.132Z,9.13
2023-06-20T15:10:33.151Z,10.07
2023-06-20T15:13:01.220Z,10.15
2023-06-20T15:15:29.594Z,10.18
2023-06-20T15:17:57.829Z,9.18
2023-06-20T15:20:26.338Z,10.10
2023-06-20T15:22:55.884Z,9.93
2023-06-20T15:25:23.885Z,9.45
2023-06-20T15:27:51.903Z,9.60
2023-06-20T15:30:20.415Z,10.18
2023-06-20T15:32:48.652Z,9.45
2023-06-20T15:35:16.680Z,10.90
2023-06-20T15:37:44.655Z,9.50
2023-06-20T15:40:12.862Z,8.60
2023-06-20T15:42:40.881Z,8.35
2023-06-20T15:45:09.202Z,8.57
2023-06-20T15:47:37.525Z,9.00
2023-06-20T15:50:05.655Z,8.57
2023-06-20T15:52:33.750Z,8.52
2023-06-20T15:55:01.791Z,7.93
2023-06-20T15:57:29.793Z,8.02
2023-06-20T15:59:57.746Z,8.52
2023-06-20T16:02:25.935Z,7.25
2023-06-20T16:04:53.882Z,7.05
2023-06-20T16:07:23.056Z,7.90
2023-06-20T16:09:51.258Z,7.00
2023-06-20T16:12:19.168Z,6.63
2023-06-20T16:14:47.112Z,6.35
2023-06-20T16:17:15.130Z,5.68
2023-06-20T16:19:43.198Z,5.55
2023-06-20T16:22:14.762Z,5.40
2023-06-20T16:24:43.310Z,4.95
2023-06-20T16:27:11.321Z,6.00
2023-06-20T16:29:40.107Z,5.32
2023-06-20T16:32:08.471Z,5.53
2023-06-20T16:34:36.470Z,4.50
2023-06-20T16:37:04.441Z,5.05
2023-06-20T16:39:37.762Z,5.15
2023-06-20T16:42:08.037Z,5.40
2023-06-20T16:44:36.057Z,4.53
2023-06-20T16:47:04.170Z,4.70
2023-06-20T16:49:32.436Z,5.20
2023-06-20T16:52:00.360Z,4.93
2023-06-20T16:54:28.496Z,4.93
2023-06-20T16:56:56.410Z,4.90
2023-06-20T16:59:24.559Z,5.13
2023-06-20T17:01:52.596Z,4.43
2023-06-20T17:04:20.658Z,4.20
2023-06-20T17:06:48.549Z,7.65
2023-06-20T17:09:16.504Z,8.68
2023-06-20T17:11:44.596Z,5.15
2023-06-20T17:14:12.548Z,4.40
2023-06-20T17:16:40.480Z,4.18
2023-06-20T17:19:08.437Z,3.90
2023-06-20T17:21:39.404Z,5.05
2023-06-20T17:24:10.560Z,6.43
2023-06-20T17:26:38.536Z,4.30
2023-06-20T17:29:06.563Z,4.35
2023-06-20T17:31:34.549Z,3.67
2023-06-20T17:34:04.326Z,4.13
2023-06-20T17:36:32.537Z,4.03
2023-06-20T17:39:00.509Z,4.45
2023-06-20T17:41:28.465Z,4.35
2023-06-20T17:43:56.609Z,3.88
2023-06-20T17:46:24.742Z,4.32
2023-06-20T17:48:52.962Z,3.92
2023-06-20T17:51:21.022Z,4.13
2023-06-20T17:53:49.117Z,3.88
2023-06-20T17:56:18.010Z,3.95
2023-06-20T17:58:46.047Z,4.40
2023-06-20T18:01:14.026Z,12.80
2023-06-20T18:03:42.149Z,8.20
2023-06-20T18:06:10.269Z,11.00
2023-06-20T18:08:38.450Z,17.30
2023-06-20T18:11:06.436Z,7.85
2023-06-20T18:13:37.224Z,4.95
2023-06-20T18:16:05.301Z,4.85
2023-06-20T18:18:33.721Z,4.72
2023-06-20T18:21:01.756Z,4.03
2023-06-20T18:23:29.681Z,4.43
2023-06-20T18:26:01.649Z,4.70
2023-06-20T18:28:36.274Z,4.93
2023-06-20T18:31:04.679Z,4.50
2023-06-20T18:33:32.786Z,4.40
2023-06-20T18:36:01.867Z,5.03
2023-06-20T18:38:33.395Z,5.05
2023-06-20T18:41:01.306Z,4.50
2023-06-20T18:43:29.314Z,4.00
2023-06-20T18:45:57.463Z,5.05
2023-06-20T18:48:25.623Z,4.93
2023-06-20T18:50:53.879Z,4.85
2023-06-20T18:53:23.121Z,5.13
2023-06-20T18:55:50.968Z,4.43
2023-06-20T18:58:18.915Z,5.40
2023-06-20T19:00:47.069Z,6.72
2023-06-20T19:03:17.072Z,5.63
2023-06-20T19:05:46.425Z,5.88
2023-06-20T19:08:14.310Z,6.00
2023-06-20T19:10:42.482Z,9.38
2023-06-20T19:13:10.478Z,8.63
2023-06-20T19:15:38.575Z,6.85
2023-06-20T19:18:06.663Z,6.35
2023-06-20T19:20:46.368Z,5.43
2023-06-20T19:23:14.269Z,5.95
2023-06-20T19:26:11.305Z,6.75
2023-06-20T19:28:39.463Z,7.43
2023-06-20T19:31:07.462Z,5.45
2023-06-20T19:33:35.483Z,7.68
2023-06-20T19:36:03.477Z,6.82
2023-06-20T19:38:31.375Z,6.60
2023-06-20T19:41:00.288Z,5.80
2023-06-20T19:43:28.350Z,16.10
2023-06-20T19:45:56.212Z,7.60
2023-06-20T19:48:24.428Z,6.28
2023-06-20T19:50:52.471Z,5.80
2023-06-20T19:53:20.743Z,5.47
2023-06-20T19:55:49.242Z,5.38
2023-06-20T19:58:17.228Z,5.78
2023-06-20T20:00:49.232Z,6.47
2023-06-20T20:03:17.560Z,6.28
2023-06-20T20:05:45.907Z,8.20
2023-06-20T20:08:13.862Z,5.78
2023-06-20T20:10:41.972Z,5.40
2023-06-20T20:13:09.991Z,5.68
2023-06-20T20:15:38.280Z,5.57
2023-06-20T20:18:06.559Z,8.65
2023-06-20T20:20:35.936Z,8.63
2023-06-20T20:23:04.052Z,9.00
2023-06-20T20:25:33.697Z,6.85
2023-06-20T20:28:02.791Z,8.65
2023-06-20T20:30:31.129Z,9.55
2023-06-20T20:32:59.372Z,8.93
2023-06-20T20:35:27.472Z,7.35
2023-06-20T20:37:55.546Z,6.70
2023-06-20T20:40:25.707Z,6.40
2023-06-20T20:42:53.975Z,8.98
2023-06-20T20:45:21.884Z,8.23
2023-06-20T20:47:50.899Z,7.15
2023-06-20T20:50:18.976Z,7.95
2023-06-20T20:52:46.972Z,6.30
2023-06-20T20:55:15.179Z,6.30
2023-06-20T20:57:44.683Z,6.38
2023-06-20T21:00:13.349Z,6.07
2023-06-20T21:02:41.480Z,6.78
2023-06-20T21:05:09.637Z,7.55
2023-06-20T21:07:37.675Z,6.70
2023-06-20T21:10:05.803Z,6.50
2023-06-20T21:12:33.851Z,6.80
2023-06-20T21:15:02.187Z,6.25
2023-06-20T21:17:30.469Z,8.05
2023-06-20T21:19:58.515Z,6.93
2023-06-20T21:22:26.443Z,6.78
2023-06-20T21:24:54.752Z,6.28
2023-06-20T21:27:22.610Z,7.03
2023-06-20T21:29:50.626Z,6.05
2023-06-20T21:32:18.496Z,6.28
2023-06-20T21:34:46.470Z,6.32
2023-06-20T21:37:16.264Z,6.57
2023-06-20T21:39:44.235Z,6.50
2023-06-20T21:42:12.204Z,6.93
2023-06-20T21:44:40.185Z,6.15
2023-06-20T21:47:08.333Z,6.43
2023-06-20T21:49:36.205Z,6.35
2023-06-20T21:52:04.872Z,6.18
2023-06-20T21:54:32.833Z,6.40
2023-06-20T21:57:00.904Z,6.05
2023-06-20T21:59:29.037Z,6.05
2023-06-20T22:01:57.138Z,6.18
2023-06-20T22:04:25.121Z,6.30
2023-06-20T22:06:53.123Z,6.30
2023-06-20T22:09:21.014Z,6.60
2023-06-20T22:11:49.012Z,7.35
2023-06-20T22:14:17.165Z,6.07
2023-06-20T22:16:45.138Z,6.47
2023-06-20T22:19:13.008Z,6.25
2023-06-20T22:21:41.094Z,6.53
2023-06-20T22:24:08.973Z,6.45
2023-06-20T22:26:37.182Z,6.35
2023-06-20T22:29:05.028Z,7.60
2023-06-20T22:31:37.760Z,7.05
2023-06-20T22:34:07.379Z,6.80
2023-06-20T22:36:35.202Z,6.93
2023-06-20T22:39:05.189Z,6.40
2023-06-20T22:41:33.157Z,8.05
2023-06-20T22:44:01.258Z,8.70
2023-06-20T22:46:29.254Z,8.32
2023-06-20T22:49:00.944Z,8.50
2023-06-20T22:51:32.776Z,8.00
2023-06-20T22:54:01.213Z,8.05
2023-06-20T22:56:29.601Z,8.07
2023-06-20T22:58:57.882Z,8.20
2023-06-20T23:01:25.756Z,7.93
2023-06-20T23:03:53.931Z,8.43
2023-06-20T23:06:21.881Z,8.38
2023-06-20T23:08:50.944Z,7.82
2023-06-20T23:11:18.893Z,9.25
2023-06-20T23:13:46.889Z,7.93
2023-06-20T23:16:14.834Z,7.78
2023-06-20T23:18:43.679Z,8.43
2023-06-20T23:21:11.717Z,9.30
2023-06-20T23:23:41.415Z,9.43
2023-06-20T23:26:09.484Z,9.25
2023-06-20T23:28:37.533Z,9.85
2023-06-20T23:31:05.490Z,9.32
2023-06-20T23:33:33.726Z,9.25
2023-06-20T23:36:02.524Z,10.02
2023-06-20T23:38:31.211Z,9.57
2023-06-20T23:40:59.687Z,10.35
2023-06-20T23:43:27.849Z,9.68
2023-06-20T23:45:57.382Z,9.25
2023-06-20T23:48:25.961Z,9.15
2023-06-20T23:50:55.111Z,8.43
2023-06-20T23:53:23.537Z,9.10
2023-06-20T23:55:51.574Z,9.30
2023-06-20T23:58:19.649Z,8.82
